createdAt,value
2022-12-06T00:01:52.238Z,4.9
2022-12-06T00:03:55.828Z,4.6
2022-12-06T00:06:02.483Z,4.9
2022-12-06T00:08:06.189Z,4.7
2022-12-06T00:10:09.778Z,4.7
2022-12-06T00:12:13.416Z,4.6
2022-12-06T00:14:17.097Z,5
2022-12-06T00:16:20.817Z,4.6
2022-12-06T00:18:24.340Z,4.7
2022-12-06T00:20:31.096Z,4.6
2022-12-06T00:22:34.696Z,4.6
2022-12-06T00:24:38.346Z,5
2022-12-06T00:25:41.681Z,4.7
2022-12-06T00:27:45.310Z,4.7
2022-12-06T00:29:48.948Z,4.6
2022-12-06T00:33:59.330Z,4.6
2022-12-06T00:36:02.951Z,5
2022-12-06T00:38:06.558Z,4.7
2022-12-06T00:40:10.238Z,4.7
2022-12-06T00:42:13.872Z,5
2022-12-06T00:44:17.520Z,4.9
2022-12-06T00:46:21.260Z,5
2022-12-06T00:48:27.878Z,5
2022-12-06T00:50:31.500Z,4.6
2022-12-06T00:52:35.156Z,4.7
2022-12-06T00:54:38.811Z,4.8
2022-12-06T00:58:46.061Z,5
2022-12-06T01:00:49.783Z,4.9
2022-12-06T01:02:56.490Z,4.9
2022-12-06T01:05:00.070Z,4.6
2022-12-06T01:09:07.337Z,4.9
2022-12-06T01:11:10.977Z,4.9
2022-12-06T01:13:14.626Z,4.6
2022-12-06T01:15:18.260Z,5
2022-12-06T01:17:24.967Z,4.8
2022-12-06T01:19:28.611Z,4.7
2022-12-06T01:21:32.278Z,4.6
2022-12-06T01:28:46.528Z,4.8
2022-12-06T01:30:53.303Z,4.9
2022-12-06T01:32:56.887Z,4.7
2022-12-06T01:35:00.528Z,4.7
2022-12-06T01:39:07.829Z,4.6
2022-12-06T01:41:11.469Z,5
2022-12-06T01:51:32.707Z,5.1
2022-12-06T01:53:36.419Z,4.9
2022-12-06T01:55:40.030Z,4.7
2022-12-06T01:59:50.372Z,4.7
2022-12-06T02:03:57.669Z,5
2022-12-06T02:10:08.602Z,4.6
2022-12-06T02:14:18.909Z,4.8
2022-12-06T02:16:22.612Z,4.6
2022-12-06T02:18:26.174Z,4.8
2022-12-06T02:20:50.601Z,4.7
2022-12-06T02:22:54.222Z,5
2022-12-06T02:24:57.842Z,4.9
2022-12-06T02:27:04.553Z,5
2022-12-06T02:29:08.167Z,5
2022-12-06T02:31:11.888Z,4.6
2022-12-06T02:33:15.482Z,4.8
2022-12-06T02:35:19.128Z,4.6
2022-12-06T02:37:22.762Z,4.6
2022-12-06T02:39:26.395Z,4.9
2022-12-06T02:41:33.103Z,4.9
2022-12-06T02:43:36.752Z,4.8
2022-12-06T02:45:40.385Z,4.6
2022-12-06T02:47:43.990Z,4.6
2022-12-06T02:49:47.647Z,4.6
2022-12-06T02:51:51.289Z,4.8
2022-12-06T02:53:54.933Z,4.9
2022-12-06T02:56:01.660Z,4.9
2022-12-06T02:58:05.303Z,4.5
2022-12-06T03:00:08.946Z,4.5
2022-12-06T03:02:12.691Z,4.9
2022-12-06T03:04:16.229Z,4.5
2022-12-06T03:06:19.849Z,4.8
2022-12-06T03:08:23.570Z,4.5
2022-12-06T03:10:30.165Z,4.4
2022-12-06T03:12:33.810Z,4.5
2022-12-06T03:14:37.454Z,4.9
2022-12-06T03:17:44.463Z,4.8
2022-12-06T03:19:48.113Z,4.9
2022-12-06T03:23:58.506Z,4.8
2022-12-06T03:26:02.160Z,4.9
2022-12-06T03:30:09.444Z,4.9
2022-12-06T03:32:13.094Z,4.9
2022-12-06T03:34:16.701Z,4.8
2022-12-06T03:36:20.354Z,4.7
2022-12-06T03:38:27.090Z,4.4
2022-12-06T03:40:30.728Z,4.5
2022-12-06T03:42:34.344Z,4.4
2022-12-06T03:44:37.970Z,4.7
2022-12-06T03:48:45.367Z,4.7
2022-12-06T03:50:52.895Z,4.3
2022-12-06T03:52:55.633Z,4.4
2022-12-06T03:54:59.247Z,4.4
2022-12-06T03:57:02.909Z,4.7
2022-12-06T03:59:06.553Z,4.5
2022-12-06T04:01:10.189Z,4.4
2022-12-06T04:03:13.805Z,4.3
2022-12-06T04:05:17.483Z,4.3
2022-12-06T04:07:24.281Z,4.3
2022-12-06T04:09:27.849Z,4.3
2022-12-06T04:11:31.475Z,4.3
2022-12-06T04:14:38.463Z,4.6
2022-12-06T04:20:52.472Z,4.2
2022-12-06T04:22:56.088Z,4.6
2022-12-06T04:24:59.720Z,4.6
2022-12-06T04:29:07.021Z,4.1
2022-12-06T04:33:14.314Z,4.5
2022-12-06T04:41:31.935Z,4.5
2022-12-06T04:47:42.851Z,4.3
2022-12-06T04:49:49.578Z,4.5
2022-12-06T04:53:56.835Z,4.2
2022-12-06T04:56:00.560Z,4.2
2022-12-06T04:58:04.147Z,4.5
2022-12-06T05:00:07.806Z,4.3
2022-12-06T05:02:11.415Z,4.1
2022-12-06T05:04:18.218Z,4.1
2022-12-06T05:06:21.768Z,4.5
2022-12-06T05:09:28.862Z,4.5
2022-12-06T05:11:32.489Z,4.5
2022-12-06T05:13:36.171Z,4.1
2022-12-06T05:15:39.801Z,4.5
2022-12-06T05:17:46.508Z,4.1
2022-12-06T05:19:50.192Z,4.5
2022-12-06T05:21:53.808Z,4.5
2022-12-06T05:23:57.513Z,4.3
2022-12-06T05:26:01.066Z,4.5
2022-12-06T05:28:04.766Z,4.5
2022-12-06T05:30:08.400Z,4.2
2022-12-06T05:32:15.136Z,4.2
2022-12-06T05:34:18.754Z,4.5
2022-12-06T05:36:22.428Z,4.3
2022-12-06T05:38:26.056Z,4.6
2022-12-06T05:40:29.659Z,4.5
2022-12-06T05:42:33.313Z,4.6
2022-12-06T05:44:36.966Z,4.3
2022-12-06T05:48:47.324Z,4.6
2022-12-06T05:50:50.953Z,4.2
2022-12-06T05:52:54.608Z,4.1
2022-12-06T05:54:58.249Z,4.4
2022-12-06T05:57:01.906Z,4.2
2022-12-06T05:59:07.087Z,4.2
2022-12-06T06:01:13.754Z,4.1
2022-12-06T06:03:17.593Z,4.2
2022-12-06T06:05:21.057Z,4.5
2022-12-06T06:07:51.291Z,4.1
2022-12-06T06:09:54.857Z,4.2
2022-12-06T06:11:58.570Z,4.1
2022-12-06T06:14:05.254Z,4.6
2022-12-06T06:16:08.943Z,4.5
2022-12-06T06:18:12.503Z,4.2
2022-12-06T06:20:16.163Z,4.1
2022-12-06T06:22:19.791Z,4.4
2022-12-06T06:24:23.474Z,4.5
2022-12-06T06:26:27.077Z,4.1
2022-12-06T06:28:33.777Z,4.5
2022-12-06T06:30:37.422Z,4.3
2022-12-06T06:32:41.096Z,4
2022-12-06T06:34:44.720Z,4.1
2022-12-06T06:36:48.387Z,4.5
2022-12-06T06:38:52.005Z,4
2022-12-06T06:40:55.662Z,4.2
2022-12-06T06:43:02.357Z,4
2022-12-06T06:47:09.668Z,4.4
2022-12-06T06:51:16.921Z,4.4
2022-12-06T06:53:20.541Z,4
2022-12-06T06:55:24.223Z,4.4
2022-12-06T06:59:34.547Z,4.3
2022-12-06T07:01:38.329Z,4.3
2022-12-06T07:02:41.634Z,4.4
2022-12-06T07:04:45.258Z,4.4
2022-12-06T07:08:52.496Z,4.4
2022-12-06T07:10:59.206Z,4
2022-12-06T07:15:06.486Z,4.3
2022-12-06T07:17:10.252Z,4.2
2022-12-06T07:19:13.771Z,4.2
2022-12-06T07:21:17.420Z,3.9
2022-12-06T07:23:21.091Z,4
2022-12-06T07:25:27.778Z,4.4
2022-12-06T07:27:31.430Z,4.4
2022-12-06T07:29:35.092Z,4.3
2022-12-06T07:31:38.766Z,4.2
2022-12-06T07:33:42.374Z,4.2
2022-12-06T07:36:11.521Z,4.1
2022-12-06T07:37:49.678Z,4.1
2022-12-06T07:39:56.339Z,4
2022-12-06T07:46:07.314Z,4
2022-12-06T07:48:10.888Z,3.9
2022-12-06T07:50:17.943Z,3.9
2022-12-06T07:52:18.205Z,3.9
2022-12-06T07:54:24.916Z,3.8
2022-12-06T07:56:28.603Z,3.8
2022-12-06T07:58:32.199Z,3.8
2022-12-06T07:59:35.532Z,3.8
2022-12-06T08:01:39.213Z,3.8
2022-12-06T08:03:42.796Z,3.8
2022-12-06T08:05:46.447Z,3.7
2022-12-06T08:07:53.297Z,3.7
2022-12-06T08:09:56.871Z,3.7
2022-12-06T08:12:00.513Z,3.7
2022-12-06T08:14:04.175Z,3.7
2022-12-06T08:16:07.899Z,3.6
2022-12-06T08:18:11.451Z,3.6
2022-12-06T08:20:15.056Z,3.5
2022-12-06T08:22:21.792Z,3.5
2022-12-06T08:24:25.436Z,3.5
2022-12-06T08:26:29.153Z,3.5
2022-12-06T08:28:32.786Z,3.5
2022-12-06T08:30:36.510Z,3.6
2022-12-06T08:32:40.115Z,3.7
2022-12-06T08:34:43.754Z,3.7
2022-12-06T08:36:50.602Z,3.6
2022-12-06T08:38:54.261Z,3.6
2022-12-06T08:40:57.900Z,3.7
2022-12-06T08:43:01.589Z,3.8
2022-12-06T08:45:05.310Z,3.9
2022-12-06T08:49:12.676Z,4
2022-12-06T08:51:19.491Z,4.1
2022-12-06T08:53:23.208Z,4.1
2022-12-06T08:55:26.934Z,4.1
2022-12-06T08:56:30.292Z,4.2
2022-12-06T08:58:34.005Z,4.2
2022-12-06T09:00:37.670Z,4.3
2022-12-06T09:02:41.417Z,4.3
2022-12-06T09:04:48.177Z,4.4
2022-12-06T09:06:51.782Z,4.9
2022-12-06T09:08:55.426Z,6.9
2022-12-06T09:10:59.062Z,8.3
2022-12-06T09:13:02.701Z,9
2022-12-06T09:15:06.351Z,9.4
2022-12-06T09:17:09.988Z,9.8
2022-12-06T09:19:16.653Z,9.4
2022-12-06T09:21:20.312Z,9.1
2022-12-06T09:23:23.989Z,7.7
2022-12-06T09:25:27.617Z,8
2022-12-06T09:27:31.242Z,10.1
2022-12-06T09:29:40.208Z,9.9
2022-12-06T09:31:38.567Z,10.4
2022-12-06T09:33:45.205Z,9.3
2022-12-06T09:35:48.851Z,9.2
2022-12-06T09:37:52.467Z,10.1
2022-12-06T09:39:56.198Z,9.6
2022-12-06T09:41:59.753Z,8.9
2022-12-06T09:44:03.374Z,8.7
2022-12-06T09:46:07.097Z,9.5
2022-12-06T09:48:13.696Z,9.5
2022-12-06T09:50:17.344Z,9.5
2022-12-06T09:52:20.980Z,9.2
2022-12-06T09:54:51.132Z,9.4
2022-12-06T09:58:52.491Z,9.2
2022-12-06T10:00:59.188Z,9.7
2022-12-06T10:03:02.842Z,9.6
2022-12-06T10:05:06.418Z,9.2
2022-12-06T10:07:10.036Z,9.4
2022-12-06T10:09:13.753Z,9.5
2022-12-06T10:11:17.244Z,9.3
2022-12-06T10:13:20.878Z,9
2022-12-06T10:15:27.548Z,9.3
2022-12-06T10:17:31.193Z,9.3
2022-12-06T10:19:34.789Z,9.1
2022-12-06T10:23:41.967Z,9.9
2022-12-06T10:25:45.569Z,10
2022-12-06T10:27:49.188Z,9.8
2022-12-06T10:29:55.831Z,9
2022-12-06T10:31:59.488Z,8.8
2022-12-06T10:34:03.035Z,9
2022-12-06T10:36:06.585Z,9
2022-12-06T10:38:10.223Z,8.2
2022-12-06T10:40:13.801Z,7.5
2022-12-06T10:42:17.363Z,7
2022-12-06T10:44:24.110Z,6.6
2022-12-06T10:46:27.676Z,7.3
2022-12-06T10:48:31.190Z,9.2
2022-12-06T10:49:34.544Z,9.1
2022-12-06T10:51:38.132Z,9.7
2022-12-06T10:53:41.707Z,9.6
2022-12-06T10:55:45.276Z,8.9
2022-12-06T10:57:51.955Z,8.6
2022-12-06T10:59:55.358Z,9.2
2022-12-06T11:01:59.065Z,9.1
2022-12-06T11:04:02.572Z,7.7
2022-12-06T11:06:06.110Z,7.1
2022-12-06T11:08:09.794Z,7
2022-12-06T11:10:13.337Z,6.9
2022-12-06T11:12:20.008Z,6.9
2022-12-06T11:14:23.609Z,6.8
2022-12-06T11:16:27.259Z,6.6
2022-12-06T11:18:30.821Z,6.5
2022-12-06T11:20:34.408Z,6.5
2022-12-06T11:24:47.433Z,6.6
2022-12-06T11:28:51.897Z,6.6
2022-12-06T11:30:55.491Z,6.6
2022-12-06T11:35:02.726Z,6.6
2022-12-06T11:37:06.356Z,6.6
2022-12-06T11:39:09.924Z,6.6
2022-12-06T11:41:16.593Z,6.4
2022-12-06T11:43:20.221Z,6.4
2022-12-06T11:45:23.845Z,6.5
2022-12-06T11:48:30.820Z,6.3
2022-12-06T11:50:34.406Z,6.4
2022-12-06T11:52:38.012Z,6.3
2022-12-06T11:54:46.208Z,6.4
2022-12-06T11:56:49.832Z,6.5
2022-12-06T11:58:53.485Z,6.8
2022-12-06T12:00:57.070Z,7
2022-12-06T12:03:00.726Z,7.1
2022-12-06T12:05:04.277Z,7.1
2022-12-06T12:07:07.883Z,7
2022-12-06T12:09:14.576Z,6.9
2022-12-06T12:11:18.167Z,6.9
2022-12-06T12:13:21.813Z,6.9
2022-12-06T12:15:25.434Z,6.8
2022-12-06T12:17:29.043Z,6.8
2022-12-06T12:19:32.663Z,6.8
2022-12-06T12:21:36.245Z,6.7
2022-12-06T12:23:42.971Z,6.7
2022-12-06T12:25:46.580Z,6.7
2022-12-06T12:27:50.188Z,6.7
2022-12-06T12:29:53.798Z,6.6
2022-12-06T12:31:57.445Z,6.6
2022-12-06T12:34:01.035Z,6.7
2022-12-06T12:36:04.657Z,6.6
2022-12-06T12:38:11.352Z,6.8
2022-12-06T12:40:14.960Z,6.9
2022-12-06T12:42:18.588Z,6.9
2022-12-06T12:43:21.902Z,6.8
2022-12-06T12:45:25.545Z,6.8
2022-12-06T12:47:29.143Z,6.8
2022-12-06T12:49:32.778Z,6.7
2022-12-06T12:53:43.122Z,6.6
2022-12-06T12:55:46.713Z,6.6
2022-12-06T12:57:50.329Z,6.8
2022-12-06T13:04:01.162Z,6.7
2022-12-06T13:08:11.567Z,6.7
2022-12-06T13:10:15.046Z,6.7
2022-12-06T13:14:22.333Z,6.7
2022-12-06T13:16:25.957Z,6.7
2022-12-06T13:18:29.548Z,6.6
2022-12-06T13:20:36.213Z,6.5
2022-12-06T13:22:39.847Z,6.5
2022-12-06T13:24:43.471Z,6.5
2022-12-06T13:26:47.066Z,6.5
2022-12-06T13:28:50.675Z,6.5
2022-12-06T13:30:54.378Z,6.5
2022-12-06T13:32:57.901Z,6.6
2022-12-06T13:35:04.748Z,6.6
2022-12-06T13:37:08.192Z,6.6
2022-12-06T13:39:11.809Z,6.7
2022-12-06T13:41:34.211Z,6.6
2022-12-06T13:43:39.990Z,6.6
2022-12-06T13:45:41.521Z,6.7
2022-12-06T13:47:48.096Z,6.7
2022-12-06T13:49:51.687Z,6.7
2022-12-06T13:51:55.335Z,6.7
2022-12-06T13:53:58.938Z,6.6
2022-12-06T13:56:02.585Z,6.6
2022-12-06T13:58:06.189Z,6.6
2022-12-06T14:00:09.808Z,6.5
2022-12-06T14:04:20.114Z,6.5
2022-12-06T14:06:23.728Z,6.5
2022-12-06T14:08:27.315Z,6.4
2022-12-06T14:10:30.953Z,6.4
2022-12-06T14:12:34.587Z,6.4
2022-12-06T14:14:38.209Z,6.4
2022-12-06T14:16:44.934Z,6.4
2022-12-06T14:18:48.481Z,6.4
2022-12-06T14:22:55.762Z,6.4
2022-12-06T14:24:59.339Z,6.4
2022-12-06T14:27:02.952Z,6.4
2022-12-06T14:29:06.577Z,6.4
2022-12-06T14:31:13.313Z,6.4
2022-12-06T14:33:16.899Z,6.4
2022-12-06T14:36:23.935Z,6.4
2022-12-06T14:38:27.447Z,6.4
2022-12-06T14:40:45.774Z,6.4
2022-12-06T14:42:34.711Z,6.4
2022-12-06T14:44:41.441Z,6.4
2022-12-06T14:46:45.084Z,6.4
2022-12-06T14:48:48.634Z,6.4
2022-12-06T14:50:52.291Z,6.3
2022-12-06T14:52:55.897Z,6.3
2022-12-06T14:54:59.524Z,6.2
2022-12-06T14:57:03.107Z,6.2
2022-12-06T14:59:09.876Z,6.1
2022-12-06T15:01:13.429Z,6.1
2022-12-06T15:03:17.153Z,6
2022-12-06T15:05:20.683Z,5.9
2022-12-06T15:07:24.330Z,5.9
2022-12-06T15:09:27.912Z,5.9
2022-12-06T15:11:31.610Z,5.9
2022-12-06T15:13:38.233Z,5.9
2022-12-06T15:17:45.488Z,5.8
2022-12-06T15:19:49.099Z,5.8
2022-12-06T15:21:52.860Z,5.8
2022-12-06T15:23:56.385Z,5.8
2022-12-06T15:26:00.006Z,5.8
2022-12-06T15:28:06.670Z,5.8
2022-12-06T15:30:10.313Z,5.8
2022-12-06T15:32:13.885Z,5.8
2022-12-06T15:33:17.246Z,5.8
2022-12-06T15:37:39.543Z,5.7
2022-12-06T15:41:34.855Z,5.7
2022-12-06T15:43:38.479Z,5.8
2022-12-06T15:45:42.439Z,5.6
2022-12-06T15:47:46.077Z,5.7
2022-12-06T15:49:49.714Z,5.7
2022-12-06T15:51:53.322Z,5.6
2022-12-06T15:53:56.950Z,5.6
2022-12-06T15:56:03.609Z,5.5
2022-12-06T15:58:07.277Z,5.5
2022-12-06T16:00:10.914Z,5.5
2022-12-06T16:02:14.609Z,5.5
2022-12-06T16:04:18.180Z,5.4
2022-12-06T16:06:21.772Z,5.6
2022-12-06T16:08:25.634Z,5.4
2022-12-06T16:11:03.007Z,5.4
2022-12-06T16:12:35.714Z,5.6
2022-12-06T16:14:39.314Z,5.5
2022-12-06T16:16:43.717Z,5.5
2022-12-06T16:18:46.552Z,5.6
2022-12-06T16:20:50.246Z,5.4
2022-12-06T16:22:53.772Z,5.5
2022-12-06T16:27:04.108Z,5.4
2022-12-06T16:29:07.695Z,5.4
2022-12-06T16:30:11.066Z,5.6
2022-12-06T16:32:14.699Z,5.4
2022-12-06T16:34:18.300Z,5.5
2022-12-06T16:36:21.939Z,5.6
2022-12-06T16:38:28.679Z,5.7
2022-12-06T16:40:32.210Z,5.6
2022-12-06T16:42:35.837Z,5.5
2022-12-06T16:44:39.459Z,5.5
2022-12-06T16:46:43.155Z,5.6
2022-12-06T16:48:50.014Z,5.5
2022-12-06T16:50:50.348Z,5.5
2022-12-06T16:52:57.016Z,5.6
2022-12-06T16:55:00.854Z,5.6
2022-12-06T16:59:07.895Z,5.5
2022-12-06T17:01:11.587Z,5.3
2022-12-06T17:03:15.136Z,5.4
2022-12-06T17:05:18.778Z,5.6
2022-12-06T17:07:25.473Z,5.6
2022-12-06T17:09:29.077Z,5.6
2022-12-06T17:11:32.686Z,5.6
2022-12-06T17:13:36.302Z,5.4
2022-12-06T17:15:39.909Z,5.5
2022-12-06T17:17:43.596Z,5.4
2022-12-06T17:19:47.192Z,5.4
2022-12-06T17:21:53.864Z,5.5
2022-12-06T17:23:57.481Z,5.4
2022-12-06T17:26:01.086Z,5.3
2022-12-06T17:28:31.200Z,5.2
2022-12-06T17:30:34.818Z,5.3
2022-12-06T17:34:45.171Z,5.4
2022-12-06T17:36:48.786Z,5.4
2022-12-06T17:38:52.423Z,5.2
2022-12-06T17:40:56.078Z,5
2022-12-06T17:42:59.728Z,5
2022-12-06T17:45:03.607Z,5
2022-12-06T17:47:06.999Z,5
2022-12-06T17:51:18.809Z,5.1
2022-12-06T17:53:22.418Z,4.7
2022-12-06T17:55:26.088Z,5
2022-12-06T17:57:29.732Z,5.1
2022-12-06T17:59:33.370Z,5.1
2022-12-06T18:02:06.103Z,4.7
2022-12-06T18:03:43.704Z,4.9
2022-12-06T18:05:47.323Z,4.9
2022-12-06T18:07:51.036Z,4.9
2022-12-06T18:09:54.598Z,4.7
2022-12-06T18:11:58.208Z,4.8
2022-12-06T18:14:01.863Z,5
2022-12-06T18:16:05.580Z,4.9
2022-12-06T18:18:12.202Z,5
2022-12-06T18:20:15.828Z,4.7
2022-12-06T18:22:19.446Z,4.9
2022-12-06T18:23:22.787Z,4.7
2022-12-06T18:25:26.445Z,5
2022-12-06T18:27:30.118Z,4.7
2022-12-06T18:29:33.721Z,4.7
2022-12-06T18:31:40.450Z,5
2022-12-06T18:37:51.331Z,4.8
2022-12-06T18:39:54.944Z,4.9
2022-12-06T18:44:02.238Z,4.7
2022-12-06T18:46:09.038Z,4.7
2022-12-06T18:48:12.583Z,4.8
2022-12-06T18:50:16.444Z,5
2022-12-06T18:52:19.854Z,5.1
2022-12-06T18:54:23.502Z,5.1
2022-12-06T18:56:27.122Z,5.1
2022-12-06T18:58:30.727Z,4.9
2022-12-06T19:02:41.183Z,5
2022-12-06T19:04:44.684Z,4.8
2022-12-06T19:08:51.998Z,4.9
2022-12-06T19:10:55.668Z,4.9
2022-12-06T19:15:06.026Z,4.8
2022-12-06T19:17:09.716Z,4.8
2022-12-06T19:19:16.532Z,4.8
2022-12-06T19:20:16.616Z,4.8
2022-12-06T19:22:20.269Z,4.7
2022-12-06T19:24:23.904Z,4.7
2022-12-06T19:26:27.535Z,5.1
2022-12-06T19:28:34.280Z,5.1
2022-12-06T19:30:38.004Z,4.7
2022-12-06T19:32:41.547Z,4.7
2022-12-06T19:34:45.151Z,5.1
2022-12-06T19:38:52.450Z,5
2022-12-06T19:40:56.123Z,4.7
2022-12-06T19:43:02.795Z,5
2022-12-06T19:45:06.429Z,4.7
2022-12-06T19:47:10.067Z,4.8
2022-12-06T19:49:13.720Z,4.7
2022-12-06T19:51:17.740Z,4.9
2022-12-06T19:53:21.008Z,5.1
2022-12-06T19:55:24.614Z,4.8
2022-12-06T19:57:31.323Z,4.9
2022-12-06T19:59:34.958Z,4.9
2022-12-06T20:01:38.647Z,4.9
2022-12-06T20:03:42.226Z,5.2
2022-12-06T20:05:45.872Z,4.9
2022-12-06T20:07:49.546Z,4.8
2022-12-06T20:09:53.153Z,4.8
2022-12-06T20:11:59.838Z,4.8
2022-12-06T20:14:03.468Z,5
2022-12-06T20:16:07.157Z,4.9
2022-12-06T20:17:10.450Z,4.7
2022-12-06T20:19:14.079Z,5
2022-12-06T20:21:17.709Z,4.8
2022-12-06T20:23:21.405Z,5.1
2022-12-06T20:25:28.016Z,4.9
2022-12-06T20:27:31.671Z,5.1
2022-12-06T20:29:35.303Z,5.2
2022-12-06T20:31:38.996Z,5.3
2022-12-06T20:33:42.550Z,5.2
2022-12-06T20:35:46.233Z,5.1
2022-12-06T20:37:49.821Z,5.2
2022-12-06T20:39:56.518Z,5.3
2022-12-06T20:42:00.183Z,5
2022-12-06T20:44:03.854Z,5.1
2022-12-06T20:46:13.235Z,4.9
2022-12-06T20:48:11.110Z,4.9
2022-12-06T20:54:25.068Z,5.1
2022-12-06T20:58:32.345Z,5
2022-12-06T21:00:35.990Z,4.7
2022-12-06T21:02:39.725Z,5
2022-12-06T21:04:43.261Z,5
2022-12-06T21:06:46.867Z,4.9
2022-12-06T21:08:53.563Z,4.9
2022-12-06T21:11:21.730Z,5
2022-12-06T21:13:05.894Z,4.7
2022-12-06T21:15:25.114Z,5.1
2022-12-06T21:17:28.760Z,4.8
2022-12-06T21:19:32.388Z,5
2022-12-06T21:21:39.059Z,4.8
2022-12-06T21:23:42.684Z,4.9
2022-12-06T21:27:49.968Z,5.1
2022-12-06T21:29:53.614Z,5.1
2022-12-06T21:31:57.206Z,5.2
2022-12-06T21:34:00.866Z,5.3
2022-12-06T21:36:07.632Z,4.9
2022-12-06T21:38:11.195Z,4.9
2022-12-06T21:40:14.833Z,5.1
2022-12-06T21:44:22.115Z,5.2
2022-12-06T21:46:25.787Z,5.3
2022-12-06T21:48:29.344Z,5
2022-12-06T21:50:36.079Z,5
2022-12-06T21:52:39.703Z,4.9
2022-12-06T21:58:50.614Z,5.1
2022-12-06T22:00:54.234Z,4.9
2022-12-06T22:02:57.928Z,4.8
2022-12-06T22:05:04.568Z,4.7
2022-12-06T22:09:11.851Z,4.9
2022-12-06T22:10:15.174Z,4.7
2022-12-06T22:12:18.812Z,4.6
2022-12-06T22:20:36.425Z,4.6
2022-12-06T22:22:40.069Z,4.7
2022-12-06T22:28:50.959Z,4.3
2022-12-06T22:30:54.621Z,4.3
2022-12-06T22:33:01.301Z,4.3
2022-12-06T22:39:12.228Z,4.5
2022-12-06T22:43:19.600Z,4.5
2022-12-06T22:45:23.167Z,4.2
2022-12-06T22:47:29.860Z,4.4
2022-12-06T22:49:33.492Z,4.5
2022-12-06T22:51:37.143Z,4.2
2022-12-06T22:53:40.789Z,4.1
2022-12-06T23:04:02.178Z,4
2022-12-06T23:06:05.720Z,4.4
2022-12-06T23:09:12.697Z,4.3
2022-12-06T23:11:16.294Z,4
2022-12-06T23:13:19.932Z,4.4
2022-12-06T23:15:26.656Z,4.3
2022-12-06T23:17:30.363Z,4.1
2022-12-06T23:19:34.027Z,4.1
2022-12-06T23:23:41.322Z,4.2
2022-12-06T23:25:44.947Z,4.2
2022-12-06T23:27:48.585Z,4.4
2022-12-06T23:29:55.277Z,4.2
2022-12-06T23:34:02.551Z,4.5
2022-12-06T23:36:06.212Z,4.4
2022-12-06T23:38:09.803Z,4.2
2022-12-06T23:40:13.482Z,4.1
2022-12-06T23:48:32.564Z,4.2
2022-12-06T23:52:39.878Z,4.3
2022-12-06T23:54:43.565Z,4
2022-12-06T23:58:53.848Z,4.2
